Time;durP1;ratioP1;P1;durP2;ratioP2;P2;SDS_P1;SDS_P2;PMS_P1;PMS_P2;Temp;Humidity;BMP_temperature;BMP_pressure;BME280_temperature;BME280_humidity;BME280_pressure;Samples;Min_cycle;Max_cycle;Signal;HPM_P1;HPM_P2
2021/06/15 00:02:00;;;;;;;13.48;9.13;;;;;;;16.93;70.49;99807.22;5035699;28;20030;-83
2021/06/15 00:04:26;;;;;;;17.90;10.40;;;;;;;16.83;70.39;99793.53;5011526;28;20109;-85
2021/06/15 00:06:52;;;;;;;17.20;9.57;;;;;;;16.45;70.59;99731.81;5023508;28;20046;-84
2021/06/15 00:09:17;;;;;;;13.15;9.20;;;;;;;16.58;70.32;99761.97;5030958;28;20022;-85
2021/06/15 00:11:43;;;;;;;15.50;9.82;;;;;;;16.59;70.69;99771.59;5035231;28;20037;-83
2021/06/15 00:14:09;;;;;;;21.45;11.38;;;;;;;16.70;70.60;99779.09;5035525;28;20022;-83
2021/06/15 00:16:35;;;;;;;18.42;10.65;;;;;;;16.81;70.72;99800.63;5039273;28;20041;-83
2021/06/15 00:19:01;;;;;;;17.60;11.27;;;;;;;16.86;70.57;99811.84;5055508;28;20030;-83
2021/06/15 00:21:27;;;;;;;15.00;10.38;;;;;;;16.89;70.90;99813.47;5055050;28;20037;-84
2021/06/15 00:23:53;;;;;;;13.68;10.93;;;;;;;16.84;70.83;99804.88;5045459;28;20041;-84
2021/06/15 00:26:19;;;;;;;14.65;9.80;;;;;;;16.73;70.83;99780.78;5042471;28;20086;-82
2021/06/15 00:28:45;;;;;;;15.57;9.57;;;;;;;16.90;71.00;99803.81;5043834;28;20448;-83
2021/06/15 00:31:11;;;;;;;15.15;9.40;;;;;;;16.87;71.21;99799.53;5049345;28;20037;-82
2021/06/15 00:33:38;;;;;;;16.83;9.75;;;;;;;16.83;71.35;99790.03;5053905;28;20052;-83
2021/06/15 00:36:04;;;;;;;20.65;10.45;;;;;;;16.92;71.17;99809.88;5053842;28;20045;-83
2021/06/15 00:38:30;;;;;;;12.40;7.88;;;;;;;16.93;70.96;99814.22;5053627;28;20030;-84
2021/06/15 00:40:56;;;;;;;13.10;9.13;;;;;;;16.88;71.10;99809.13;5053745;28;20053;-81
2021/06/15 00:43:22;;;;;;;16.13;10.10;;;;;;;16.66;71.26;99770.47;5041254;28;20041;-82
2021/06/15 00:45:48;;;;;;;14.10;9.43;;;;;;;16.71;71.18;99780.81;5040222;28;20044;-82
2021/06/15 00:48:27;;;;;;;15.93;9.00;;;;;;;16.81;71.16;99797.13;5038746;28;20079;-82
2021/06/15 00:50:53;;;;;;;12.30;8.75;;;;;;;16.82;71.26;99804.09;5031261;28;20041;-83
2021/06/15 00:53:19;;;;;;;12.52;9.48;;;;;;;16.67;71.25;99773.94;5040640;28;20051;-82
2021/06/15 00:55:47;;;;;;;13.77;9.20;;;;;;;16.70;71.49;99789.59;5027395;28;20144;-82
2021/06/15 00:58:13;;;;;;;20.67;9.38;;;;;;;16.73;71.46;99797.38;5024480;28;20136;-81
2021/06/15 01:00:39;;;;;;;18.75;11.30;;;;;;;16.75;71.59;99798.19;5033628;28;20066;-82
2021/06/15 01:03:06;;;;;;;13.20;9.88;;;;;;;16.73;71.38;99797.38;5020102;28;20042;-82
2021/06/15 01:05:33;;;;;;;15.05;9.75;;;;;;;16.71;71.28;99797.44;5018976;28;20088;-83
2021/06/15 01:08:05;;;;;;;15.43;10.02;;;;;;;16.69;71.77;99798.41;5022705;28;20073;-83
2021/06/15 01:10:47;;;;;;;14.02;9.68;;;;;;;16.67;71.89;99782.69;4983957;28;20536;-82
2021/06/15 01:13:13;;;;;;;12.95;9.65;;;;;;;16.73;71.70;99796.53;4999898;28;20053;-84
2021/06/15 01:16:00;;;;;;;15.90;11.05;;;;;;;16.62;71.92;99781.16;5003594;28;20049;-82
2021/06/15 01:18:29;;;;;;;22.58;12.15;;;;;;;16.36;71.73;99738.25;5037275;28;20128;-83
2021/06/15 01:21:07;;;;;;;25.98;15.57;;;;;;;16.53;71.91;99761.31;5053229;28;20045;-84
2021/06/15 01:23:49;;;;;;;19.55;14.98;;;;;;;16.75;71.85;99795.56;5038577;28;20041;-83
2021/06/15 01:26:25;;;;;;;18.25;14.25;;;;;;;16.75;71.89;99792.94;5020187;28;20061;-84
2021/06/15 01:28:57;;;;;;;17.17;13.65;;;;;;;16.76;71.86;99794.66;5018899;28;20047;-86
2021/06/15 01:31:26;;;;;;;17.73;12.45;;;;;;;16.77;71.60;99790.28;5019716;28;20045;-85
2021/06/15 01:34:16;;;;;;;16.25;11.35;;;;;;;16.78;72.06;99798.09;5052082;28;20025;-85
2021/06/15 01:36:55;;;;;;;16.50;11.40;;;;;;;16.79;71.78;99799.81;5039447;28;20060;-86
2021/06/15 01:39:25;;;;;;;16.42;11.18;;;;;;;16.26;71.96;99712.28;5042343;28;20120;-85
2021/06/15 01:42:04;;;;;;;18.17;11.50;;;;;;;16.76;71.70;99789.41;5036762;28;20146;-84
2021/06/15 01:44:34;;;;;;;15.80;10.45;;;;;;;16.86;72.21;99795.19;5036248;28;20029;-84
2021/06/15 01:47:11;;;;;;;15.10;10.38;;;;;;;16.11;71.59;99661.16;5034738;28;20049;-85
2021/06/15 01:49:53;;;;;;;20.73;11.75;;;;;;;16.98;71.63;99784.28;5033390;28;20513;-84
2021/06/15 01:52:30;;;;;;;20.90;11.60;;;;;;;17.15;71.54;99798.59;5017974;28;20068;-84
2021/06/15 01:54:58;;;;;;;13.65;10.57;;;;;;;17.13;71.58;99774.13;5019322;28;20085;-82
2021/06/15 01:57:33;;;;;;;21.73;12.00;;;;;;;17.41;71.27;99802.88;5022546;28;20045;-82
2021/06/15 02:00:10;;;;;;;15.13;10.90;;;;;;;17.52;71.04;99793.75;5051443;28;20041;-82
2021/06/15 02:02:48;;;;;;;23.67;11.15;;;;;;;17.58;70.86;99802.25;5045051;28;20053;-83
2021/06/15 02:05:43;;;;;;;20.27;11.52;;;;;;;17.60;70.50;99796.94;5039762;28;20045;-83
2021/06/15 02:08:18;;;;;;;15.93;10.85;;;;;;;17.70;70.88;99808.84;5023378;28;20060;-83
2021/06/15 02:10:45;;;;;;;17.20;11.05;;;;;;;17.72;70.88;99783.31;5034862;28;20127;-83
2021/06/15 02:13:36;;;;;;;15.43;11.27;;;;;;;17.75;70.71;99764.78;5038354;28;20112;-83
2021/06/15 02:16:23;;;;;;;16.75;11.55;;;;;;;17.66;70.59;99719.53;5036512;28;20042;-84
2021/06/15 02:19:07;;;;;;;18.52;11.02;;;;;;;18.08;70.33;99771.44;5033367;28;20060;-84
2021/06/15 02:21:44;;;;;;;16.77;10.63;;;;;;;18.17;70.32;99760.50;5019056;28;20076;-84
2021/06/15 02:24:10;;;;;;;17.35;10.68;;;;;;;18.13;70.09;99748.38;5017292;28;20111;-84
2021/06/15 02:26:37;;;;;;;14.40;11.07;;;;;;;18.08;69.73;99715.28;5039815;28;20136;-84
2021/06/15 02:29:04;;;;;;;17.92;11.07;;;;;;;18.63;69.86;99792.00;5037576;28;20144;-85
2021/06/15 02:31:36;;;;;;;21.83;12.20;;;;;;;18.77;69.58;99799.28;5056830;28;20033;-85
2021/06/15 02:34:08;;;;;;;18.25;11.32;;;;;;;18.70;69.43;99747.78;5057067;28;20092;-85
2021/06/15 02:36:40;;;;;;;20.10;11.38;;;;;;;18.78;69.26;99736.91;5040819;28;20017;-87
2021/06/15 02:39:09;;;;;;;17.58;11.75;;;;;;;18.67;69.26;99687.28;5040928;28;20041;-84
2021/06/15 02:41:39;;;;;;;23.25;12.32;;;;;;;19.09;68.98;99731.13;5057041;28;20037;-84
2021/06/15 02:44:09;;;;;;;15.93;11.65;;;;;;;19.62;68.73;99785.91;5057089;28;20053;-84
2021/06/15 02:46:40;;;;;;;22.10;12.90;;;;;;;19.81;68.41;99783.28;5057111;28;20061;-86
2021/06/15 02:49:12;;;;;;;21.75;12.25;;;;;;;19.97;68.13;99775.50;5057452;28;20041;-85
2021/06/15 02:51:45;;;;;;;25.55;15.40;;;;;;;19.63;67.43;99719.88;5056447;28;20021;-87
2021/06/15 02:54:23;;;;;;;22.50;14.55;;;;;;;19.63;67.66;99695.25;5056747;28;20047;-82
2021/06/15 02:56:54;;;;;;;24.17;16.23;;;;;;;20.21;67.30;99777.84;5056555;28;20089;-81
2021/06/15 02:59:20;;;;;;;22.95;16.15;;;;;;;20.30;67.51;99772.13;5040115;28;20129;-83
2021/06/15 03:01:51;;;;;;;17.20;14.48;;;;;;;20.35;67.14;99770.13;5037926;28;20033;-81
2021/06/15 03:04:24;;;;;;;18.52;13.95;;;;;;;20.44;67.20;99759.06;5021173;28;20026;-82
2021/06/15 03:06:50;;;;;;;20.60;13.95;;;;;;;20.63;66.78;99776.66;5015382;28;20048;-83
2021/06/15 03:09:19;;;;;;;16.98;14.25;;;;;;;20.82;66.75;99767.81;5015794;28;20374;-83
2021/06/15 03:11:51;;;;;;;22.45;15.63;;;;;;;20.94;66.42;99758.38;5018243;28;20100;-83
2021/06/15 03:14:22;;;;;;;22.85;15.02;;;;;;;21.15;66.21;99766.94;5047314;28;20045;-83
2021/06/15 03:16:55;;;;;;;19.77;14.55;;;;;;;21.04;65.79;99728.72;5023109;28;20049;-82
2021/06/15 03:19:27;;;;;;;19.35;15.32;;;;;;;21.35;65.26;99761.44;5039797;28;20489;-85
2021/06/15 03:22:16;;;;;;;19.80;14.27;;;;;;;21.49;64.95;99765.97;5044898;28;20025;-80
2021/06/15 03:25:04;;;;;;;16.00;14.30;;;;;;;21.65;64.99;99759.84;5046678;28;20049;-82
2021/06/15 03:27:35;;;;;;;16.33;13.95;;;;;;;21.87;64.28;99762.16;5034139;28;20407;-85
2021/06/15 03:30:11;;;;;;;17.52;13.63;;;;;;;21.99;64.12;99736.78;5035265;28;20048;-82
2021/06/15 03:32:47;;;;;;;17.85;13.55;;;;;;;22.22;63.55;99724.81;5033803;28;20037;-85
2021/06/15 03:35:15;;;;;;;16.73;13.27;;;;;;;22.67;63.24;99755.81;5035413;28;20045;-81
2021/06/15 03:37:49;;;;;;;18.30;14.32;;;;;;;22.64;62.14;99745.38;5066501;28;20037;-84
2021/06/15 03:40:17;;;;;;;17.27;13.20;;;;;;;22.90;62.28;99761.53;5051532;28;20040;-85
2021/06/15 03:42:44;;;;;;;15.20;12.45;;;;;;;23.03;61.92;99738.63;5042696;28;20037;-84
2021/06/15 03:45:11;;;;;;;17.52;13.38;;;;;;;23.21;61.49;99730.44;5034061;28;20537;-83
2021/06/15 03:47:39;;;;;;;16.85;12.95;;;;;;;23.67;60.55;99764.72;5034024;28;20037;-81
2021/06/15 03:50:08;;;;;;;15.10;13.48;;;;;;;23.72;60.34;99756.47;5033801;28;20033;-82
2021/06/15 03:52:37;;;;;;;19.33;12.75;;;;;;;23.86;59.93;99758.22;5051198;28;20116;-84
2021/06/15 03:55:07;;;;;;;18.27;13.35;;;;;;;23.88;58.93;99751.00;5035248;28;20071;-84
2021/06/15 03:57:35;;;;;;;15.70;13.43;;;;;;;23.94;58.82;99765.69;5035724;28;20067;-84
2021/06/15 04:00:08;;;;;;;13.95;12.52;;;;;;;23.87;58.82;99751.97;5033950;28;20184;-83
2021/06/15 04:02:43;;;;;;;15.13;13.52;;;;;;;24.13;58.30;99765.38;5033796;28;20073;-83
2021/06/15 04:05:11;;;;;;;14.30;12.77;;;;;;;24.42;58.19;99766.09;5001578;28;20167;-85
2021/06/15 04:07:38;;;;;;;16.10;12.80;;;;;;;24.46;57.87;99740.13;5018609;28;20120;-86
2021/06/15 04:10:07;;;;;;;15.35;13.10;;;;;;;24.68;57.33;99744.84;5028083;28;20042;-83
2021/06/15 04:12:33;;;;;;;17.55;13.02;;;;;;;24.90;57.11;99764.66;5017539;28;20038;-86
2021/06/15 04:15:01;;;;;;;14.48;12.35;;;;;;;25.01;56.69;99764.75;5016258;28;20038;-85
2021/06/15 04:17:31;;;;;;;13.82;12.43;;;;;;;24.99;56.14;99749.88;5025282;28;20066;-85
2021/06/15 04:19:58;;;;;;;13.23;11.82;;;;;;;25.13;55.87;99748.91;5035096;28;20424;-84
2021/06/15 04:22:31;;;;;;;15.50;12.00;;;;;;;25.44;55.68;99763.56;5035463;28;20037;-83
2021/06/15 04:24:59;;;;;;;14.30;11.93;;;;;;;25.41;54.99;99727.31;5037723;28;20045;-84
2021/06/15 04:27:26;;;;;;;15.73;11.63;;;;;;;25.50;54.58;99720.50;5021189;28;20420;-84
2021/06/15 04:29:56;;;;;;;15.15;11.68;;;;;;;25.83;54.18;99742.09;5034904;28;20072;-83
2021/06/15 04:32:34;;;;;;;13.30;11.98;;;;;;;26.04;53.71;99745.00;5033523;28;20057;-83
2021/06/15 04:35:04;;;;;;;13.77;12.05;;;;;;;26.01;53.25;99735.44;5017451;28;20529;-85
2021/06/15 04:37:33;;;;;;;13.68;12.30;;;;;;;26.13;53.05;99748.81;5034391;28;20152;-83
2021/06/15 04:40:09;;;;;;;14.63;10.75;;;;;;;26.12;52.85;99739.13;5049933;28;20053;-84
2021/06/15 04:42:42;;;;;;;15.73;11.73;;;;;;;26.50;52.55;99766.53;5016586;28;20149;-85
2021/06/15 04:45:09;;;;;;;17.80;11.98;;;;;;;26.29;52.33;99698.69;5034091;28;20038;-85
2021/06/15 04:47:40;;;;;;;13.18;11.65;;;;;;;26.61;51.51;99722.03;5023591;28;20039;-82
2021/06/15 04:50:28;;;;;;;12.70;10.90;;;;;;;26.87;50.95;99729.88;5035369;28;20099;-83
2021/06/15 04:52:56;;;;;;;12.65;11.45;;;;;;;27.16;51.11;99758.72;5050110;28;20049;-86
2021/06/15 04:55:28;;;;;;;12.95;11.32;;;;;;;27.42;50.48;99755.81;5033295;28;20064;-85
2021/06/15 04:57:56;;;;;;;12.63;10.95;;;;;;;27.50;50.06;99708.00;5033092;28;20472;-86
2021/06/15 05:00:24;;;;;;;13.95;11.48;;;;;;;28.11;49.53;99741.34;5028754;28;20042;-85
2021/06/15 05:02:52;;;;;;;15.15;12.43;;;;;;;28.21;48.54;99720.03;5014654;28;20497;-87
2021/06/15 05:05:20;;;;;;;14.88;11.40;;;;;;;28.61;48.16;99720.25;5012199;28;20040;-87
2021/06/15 05:07:55;;;;;;;12.98;11.45;;;;;;;29.03;47.59;99755.03;4997055;28;20037;-84
2021/06/15 05:10:23;;;;;;;14.00;11.52;;;;;;;28.80;46.59;99687.44;5014124;28;20091;-86
2021/06/15 05:12:52;;;;;;;14.23;11.35;;;;;;;29.07;46.42;99710.09;5014385;28;20073;-84
2021/06/15 05:15:26;;;;;;;13.90;10.90;;;;;;;29.05;45.52;99696.00;5001514;28;20073;-83
2021/06/15 05:17:54;;;;;;;14.05;10.45;;;;;;;29.36;45.95;99745.03;5016163;28;20068;-84
2021/06/15 05:20:21;;;;;;;15.98;11.43;;;;;;;29.11;45.40;99719.56;5020995;28;20065;-87
2021/06/15 05:23:11;;;;;;;15.82;12.55;;;;;;;29.03;45.10;99754.19;5020091;28;20060;-84
2021/06/15 05:25:38;;;;;;;11.70;10.43;;;;;;;28.83;45.79;99706.75;5024598;28;20037;-85
2021/06/15 05:28:07;;;;;;;14.88;11.85;;;;;;;28.95;46.11;99704.00;5062152;28;20108;-86
2021/06/15 05:30:33;;;;;;;11.43;10.18;;;;;;;28.73;45.74;99649.63;5029587;28;20443;-84
2021/06/15 05:33:00;;;;;;;12.80;11.57;;;;;;;29.18;45.44;99690.41;5027930;28;20441;-85
2021/06/15 05:35:28;;;;;;;13.30;10.70;;;;;;;28.97;45.07;99637.75;5023382;28;20040;-85
2021/06/15 05:37:54;;;;;;;13.65;11.70;;;;;;;29.41;44.49;99720.50;5022160;28;20046;-86
2021/06/15 05:40:24;;;;;;;16.00;12.70;;;;;;;29.39;44.68;99736.72;5021116;28;20067;-86
2021/06/15 05:42:50;;;;;;;12.40;11.23;;;;;;;29.30;44.17;99733.00;5038779;28;20041;-87
2021/06/15 05:45:16;;;;;;;14.82;10.73;;;;;;;29.29;44.38;99738.47;5019693;28;20051;-85
2021/06/15 05:47:44;;;;;;;14.68;10.63;;;;;;;29.09;44.53;99682.19;5034761;28;20046;-86
2021/06/15 05:50:12;;;;;;;14.88;11.98;;;;;;;29.51;44.30;99691.03;5019830;28;20737;-88
2021/06/15 05:52:41;;;;;;;14.30;10.75;;;;;;;30.47;44.48;99727.88;5035682;28;20122;-87
2021/06/15 05:55:11;;;;;;;15.65;9.68;;;;;;;32.07;43.33;99697.25;5020330;28;20083;-88
2021/06/15 05:57:38;;;;;;;9.30;8.30;;;;;;;34.14;40.14;99703.50;5019955;28;20170;-88
2021/06/15 06:00:09;;;;;;;11.07;8.40;;;;;;;36.12;37.00;99707.25;5032760;28;20041;-85
2021/06/15 06:02:44;;;;;;;12.60;9.38;;;;;;;37.83;34.00;99708.25;5016030;28;20048;-85
2021/06/15 06:10:28;;;;;;;10.95;8.38;;;;;;;40.21;28.89;99680.91;5030161;28;20044;-83
2021/06/15 06:12:54;;;;;;;9.57;8.27;;;;;;;41.22;27.86;99711.47;5020494;28;20043;-84
2021/06/15 06:15:20;;;;;;;9.73;8.20;;;;;;;42.14;26.61;99695.75;5038483;28;20168;-85
2021/06/15 06:17:46;;;;;;;13.73;8.70;;;;;;;43.03;25.10;99692.72;5019096;28;20048;-85
2021/06/15 06:20:15;;;;;;;11.70;8.23;;;;;;;43.84;23.31;99683.34;5021501;28;20038;-84
2021/06/15 06:22:43;;;;;;;8.68;7.65;;;;;;;44.18;22.61;99628.00;5024570;28;20087;-87
2021/06/15 06:25:13;;;;;;;7.90;7.13;;;;;;;45.25;21.92;99671.59;5009225;28;20046;-87
2021/06/15 06:27:41;;;;;;;9.95;6.55;;;;;;;45.69;21.06;99640.81;4989567;28;20046;-86
2021/06/15 06:30:08;;;;;;;7.80;7.00;;;;;;;46.46;20.54;99666.69;5003099;28;20125;-87
2021/06/15 06:32:38;;;;;;;10.38;7.90;;;;;;;46.75;19.39;99622.47;5004355;28;20042;-87
2021/06/15 06:35:10;;;;;;;10.05;8.10;;;;;;;47.44;19.42;99663.38;5006599;28;20049;-86
2021/06/15 06:37:36;;;;;;;10.30;7.18;;;;;;;48.02;18.73;99668.25;5031528;28;20033;-86
2021/06/15 06:40:04;;;;;;;11.90;7.20;;;;;;;48.30;17.81;99613.81;5031082;28;20053;-85
2021/06/15 06:42:31;;;;;;;9.85;7.13;;;;;;;48.95;17.27;99641.09;5014257;28;20037;-84
2021/06/15 06:44:57;;;;;;;8.05;6.90;;;;;;;49.49;16.51;99647.28;5011943;28;20052;-86
2021/06/15 06:47:23;;;;;;;9.93;7.68;;;;;;;49.93;16.43;99662.44;5004170;28;20489;-86
2021/06/15 06:49:49;;;;;;;8.05;7.25;;;;;;;50.18;16.11;99678.19;5000219;28;20030;-85
2021/06/15 06:52:16;;;;;;;11.35;7.35;;;;;;;50.19;15.91;99646.66;5017693;28;20050;-87
2021/06/15 06:54:42;;;;;;;8.95;6.20;;;;;;;50.16;15.49;99661.03;5017415;28;20042;-87
2021/06/15 06:57:14;;;;;;;9.35;7.30;;;;;;;50.07;15.06;99605.47;5022803;28;20065;-87
2021/06/15 06:59:40;;;;;;;11.88;6.85;;;;;;;50.84;14.61;99661.56;5019049;28;20038;-83
2021/06/15 07:02:07;;;;;;;9.35;7.43;;;;;;;50.81;14.82;99660.22;5023357;28;20076;-87
2021/06/15 07:04:33;;;;;;;7.93;7.07;;;;;;;50.45;14.38;99665.88;5017058;28;20161;-88
2021/06/15 07:07:00;;;;;;;9.23;6.32;;;;;;;50.81;14.37;99640.00;5015871;28;20046;-87
2021/06/15 07:09:26;;;;;;;9.25;7.07;;;;;;;51.11;14.43;99621.56;5020200;28;20043;-86
2021/06/15 07:11:52;;;;;;;8.45;6.68;;;;;;;51.45;14.12;99590.25;5019805;28;20065;-87
2021/06/15 07:14:18;;;;;;;8.70;6.50;;;;;;;51.44;13.71;99644.00;5019739;28;20045;-88
2021/06/15 07:16:44;;;;;;;9.90;6.25;;;;;;;51.49;13.60;99650.34;5037046;28;20067;-86
2021/06/15 07:19:10;;;;;;;7.40;6.70;;;;;;;51.61;13.49;99624.22;5036253;28;20124;-87
2021/06/15 07:21:36;;;;;;;8.88;6.38;;;;;;;52.12;12.96;99651.41;5035176;28;20099;-87
2021/06/15 07:24:02;;;;;;;7.55;6.13;;;;;;;52.52;12.90;99658.69;5034681;28;20100;-87
2021/06/15 07:26:28;;;;;;;9.18;6.55;;;;;;;52.93;12.41;99660.94;5019405;28;20113;-86
2021/06/15 07:28:54;;;;;;;6.53;5.93;;;;;;;52.76;11.77;99597.59;5035532;28;20068;-86
2021/06/15 07:31:20;;;;;;;8.70;5.88;;;;;;;53.29;11.80;99626.25;5034339;28;20041;-89
2021/06/15 07:33:46;;;;;;;7.75;5.72;;;;;;;53.28;11.46;99608.75;5034100;28;20052;-90
2021/06/15 07:36:12;;;;;;;6.00;5.47;;;;;;;53.22;11.47;99596.06;5018100;28;20220;-87
2021/06/15 07:38:38;;;;;;;10.30;6.22;;;;;;;54.02;11.67;99636.88;5051905;28;20041;-86
2021/06/15 07:41:04;;;;;;;9.80;5.95;;;;;;;54.58;10.91;99639.63;5044050;28;20048;-87
2021/06/15 07:43:31;;;;;;;7.25;5.88;;;;;;;54.96;10.59;99641.31;5015555;28;20041;-86
2021/06/15 07:45:57;;;;;;;7.43;5.40;;;;;;;54.78;10.41;99610.50;5034108;28;20134;-86
2021/06/15 07:48:23;;;;;;;5.88;5.38;;;;;;;54.35;10.79;99634.81;5033936;28;20080;-87
2021/06/15 07:50:49;;;;;;;5.95;5.30;;;;;;;54.22;10.33;99613.38;5016594;28;20057;-85
2021/06/15 07:53:18;;;;;;;7.05;4.93;;;;;;;54.27;10.24;99598.56;5035460;28;20044;-85
2021/06/15 07:55:44;;;;;;;;;;;;;;;54.85;10.56;99624.81;5033047;28;20088;-87
2021/06/15 07:58:13;;;;;;;5.20;4.80;;;;;;;54.81;10.86;99575.66;5032883;28;20404;-86
2021/06/15 08:00:39;;;;;;;8.43;5.40;;;;;;;54.68;10.65;99591.28;5024387;28;20045;-84
2021/06/15 08:03:05;;;;;;;8.38;5.40;;;;;;;54.57;10.01;99597.03;5019512;28;20053;-87
2021/06/15 08:05:31;;;;;;;8.45;6.97;;;;;;;54.64;9.84;99614.16;5017255;28;20097;-84
2021/06/15 08:07:57;;;;;;;7.15;6.40;;;;;;;54.23;10.03;99598.34;5015123;28;20042;-85
2021/06/15 08:10:25;;;;;;;7.15;6.55;;;;;;;53.11;9.92;99606.50;5023540;28;20034;-88
2021/06/15 08:12:51;;;;;;;6.03;5.50;;;;;;;52.45;10.67;99605.50;5032948;28;20056;-88
2021/06/15 08:15:20;;;;;;;10.45;7.00;;;;;;;52.63;10.75;99601.13;5033594;28;20391;-87
2021/06/15 08:17:47;;;;;;;13.45;6.88;;;;;;;52.97;10.96;99578.69;5012813;28;20128;-85
2021/06/15 08:20:14;;;;;;;7.55;6.07;;;;;;;54.05;10.23;99600.09;5017602;28;20591;-83
2021/06/15 08:22:40;;;;;;;7.45;5.50;;;;;;;54.77;9.81;99584.63;4999247;28;20041;-87
2021/06/15 08:25:07;;;;;;;5.65;4.07;;;;;;;55.66;9.11;99586.00;5013876;28;20045;-86
2021/06/15 08:27:34;;;;;;;5.10;4.55;;;;;;;55.66;8.88;99570.13;5027033;28;20041;-85
2021/06/15 08:30:04;;;;;;;5.07;4.38;;;;;;;56.05;8.91;99570.41;5019882;28;20065;-87
2021/06/15 08:32:31;;;;;;;5.60;5.10;;;;;;;55.64;8.53;99547.31;4997269;28;20405;-83
2021/06/15 08:34:58;;;;;;;6.60;5.10;;;;;;;55.84;8.96;99572.97;5027610;28;20045;-87
2021/06/15 08:37:23;;;;;;;5.63;5.07;;;;;;;55.88;8.88;99553.59;5032853;28;20088;-88
2021/06/15 08:39:50;;;;;;;6.00;5.20;;;;;;;55.68;9.04;99561.41;5014812;28;20037;-86
2021/06/15 08:42:16;;;;;;;5.97;5.47;;;;;;;55.03;8.96;99567.31;5028231;28;20061;-88
2021/06/15 08:44:43;;;;;;;4.82;4.53;;;;;;;54.96;9.55;99558.56;5013550;28;20540;-86
2021/06/15 08:47:09;;;;;;;6.13;5.57;;;;;;;54.80;9.41;99577.59;4998348;28;20053;-85
2021/06/15 08:49:35;;;;;;;6.13;5.57;;;;;;;54.19;9.50;99550.03;5016914;28;20464;-86
2021/06/15 08:52:02;;;;;;;5.53;4.88;;;;;;;53.26;10.03;99533.22;5016808;28;20421;-88
2021/06/15 08:54:29;;;;;;;6.95;5.07;;;;;;;52.62;10.69;99522.63;5001607;28;20088;-86
2021/06/15 08:56:55;;;;;;;9.57;5.30;;;;;;;51.20;11.30;99528.44;5035674;28;20077;-87
2021/06/15 08:59:25;;;;;;;8.98;5.50;;;;;;;51.54;11.22;99538.63;5002601;28;20084;-86
2021/06/15 09:01:55;;;;;;;5.32;4.80;;;;;;;51.80;11.36;99539.19;5027675;28;20045;-87
2021/06/15 09:04:22;;;;;;;5.55;5.05;;;;;;;52.49;10.83;99515.00;5027176;28;20140;-85
2021/06/15 09:06:52;;;;;;;6.35;5.55;;;;;;;52.38;10.17;99498.53;5004425;28;20038;-86
2021/06/15 09:09:18;;;;;;;6.00;4.90;;;;;;;51.94;11.26;99528.22;5036749;28;20125;-86
2021/06/15 09:11:53;;;;;;;5.60;5.10;;;;;;;51.53;11.23;99498.19;5003193;28;20105;-87
2021/06/15 09:14:45;;;;;;;6.00;4.90;;;;;;;50.84;11.70;99449.28;5019014;28;20048;-88
2021/06/15 09:17:27;;;;;;;5.53;5.03;;;;;;;51.07;11.31;99521.66;5026662;28;20049;-89
2021/06/15 09:20:12;;;;;;;6.13;4.70;;;;;;;50.11;11.55;99528.31;5037981;28;20052;-89
2021/06/15 09:22:39;;;;;;;4.97;4.47;;;;;;;50.83;11.71;99504.91;5020707;28;20055;-86
2021/06/15 09:25:10;;;;;;;5.10;4.68;;;;;;;51.38;11.44;99471.50;5039084;28;20052;-88
2021/06/15 09:27:38;;;;;;;5.10;4.57;;;;;;;52.16;11.32;99484.41;5007124;28;20052;-86
2021/06/15 09:30:09;;;;;;;4.72;4.30;;;;;;;52.93;10.00;99474.91;5005979;28;20038;-89
2021/06/15 09:32:46;;;;;;;4.97;4.57;;;;;;;53.65;10.09;99511.66;5019025;28;20053;-86
2021/06/15 09:35:18;;;;;;;4.68;4.05;;;;;;;53.67;10.14;99512.16;5053600;28;20097;-86
2021/06/15 09:37:50;;;;;;;5.47;4.63;;;;;;;53.53;9.69;99489.91;5022550;28;20041;-87
2021/06/15 09:40:23;;;;;;;5.75;5.20;;;;;;;52.54;10.74;99467.78;5020217;28;20513;-87
2021/06/15 09:43:03;;;;;;;5.18;4.68;;;;;;;53.11;10.53;99495.44;5039609;28;20045;-84
2021/06/15 09:45:33;;;;;;;5.00;4.60;;;;;;;53.85;9.74;99496.50;5024751;28;20054;-84
2021/06/15 09:48:28;;;;;;;5.95;5.38;;;;;;;53.33;9.70;99509.75;5039173;28;20136;-87
2021/06/15 09:51:06;;;;;;;5.80;5.25;;;;;;;51.36;11.17;99495.88;5050336;28;20033;-88
2021/06/15 09:53:40;;;;;;;4.65;4.25;;;;;;;49.34;12.30;99493.44;5024368;28;20033;-87
2021/06/15 09:56:09;;;;;;;5.78;4.30;;;;;;;47.72;13.00;99465.84;5037538;28;20056;-88
2021/06/15 09:58:56;;;;;;;4.70;4.30;;;;;;;47.42;13.92;99457.13;5034957;28;20045;-85
2021/06/15 10:01:37;;;;;;;5.10;4.03;;;;;;;48.08;13.75;99443.94;5032921;28;20041;-86
2021/06/15 10:04:20;;;;;;;4.88;4.07;;;;;;;48.57;13.16;99450.09;5036999;28;20097;-84
2021/06/15 10:06:55;;;;;;;8.80;4.65;;;;;;;49.48;12.27;99485.41;5020560;28;20123;-88
2021/06/15 10:09:37;;;;;;;6.28;4.35;;;;;;;49.64;12.70;99419.91;5032462;28;20041;-88
2021/06/15 10:12:14;;;;;;;4.72;4.32;;;;;;;46.92;13.69;99387.69;5029099;28;20041;-86
2021/06/15 10:14:40;;;;;;;4.22;3.88;;;;;;;45.72;14.62;99410.41;5046027;28;20069;-86
2021/06/15 10:17:06;;;;;;;5.43;4.32;;;;;;;45.96;14.73;99453.28;5032709;28;20156;-84
2021/06/15 10:19:32;;;;;;;4.70;4.28;;;;;;;45.43;14.93;99418.81;5045121;28;20034;-85
2021/06/15 10:21:59;;;;;;;4.90;4.40;;;;;;;44.38;16.21;99458.47;5002310;28;20162;-85
2021/06/15 10:24:27;;;;;;;10.85;4.72;;;;;;;42.54;16.61;99388.41;4991882;28;20061;-86
2021/06/15 10:26:54;;;;;;;8.20;5.30;;;;;;;41.23;18.11;99414.94;5035110;28;20037;-85
2021/06/15 10:29:21;;;;;;;5.55;5.05;;;;;;;40.02;19.02;99393.94;5037001;28;20042;-83
2021/06/15 10:31:51;;;;;;;7.13;4.97;;;;;;;39.64;18.80;99441.78;5037405;28;20455;-84
2021/06/15 10:34:44;;;;;;;6.45;4.90;;;;;;;39.07;19.99;99444.13;5022440;28;20037;-84
2021/06/15 10:37:36;;;;;;;5.57;4.43;;;;;;;38.46;20.88;99452.16;4993499;28;20417;-85
2021/06/15 10:40:14;;;;;;;7.00;4.55;;;;;;;38.17;21.27;99448.72;5018801;28;20042;-85
2021/06/15 10:42:42;;;;;;;4.93;4.43;;;;;;;37.70;21.13;99421.31;5015039;28;20513;-84
2021/06/15 10:45:20;;;;;;;5.78;5.22;;;;;;;37.48;21.55;99440.41;5019448;28;20512;-86
2021/06/15 10:48:22;;;;;;;6.88;5.28;;;;;;;36.91;23.06;99434.91;5015839;28;20060;-85
2021/06/15 10:50:50;;;;;;;8.25;4.97;;;;;;;36.27;22.81;99425.69;5014631;28;20541;-84
2021/06/15 10:53:18;;;;;;;5.40;4.90;;;;;;;35.84;23.09;99426.38;5016907;28;20158;-84
2021/06/15 10:55:51;;;;;;;7.10;4.80;;;;;;;35.25;23.80;99427.16;5027858;28;20126;-85
2021/06/15 10:58:42;;;;;;;6.72;4.97;;;;;;;34.90;24.48;99410.53;5035953;28;20048;-84
2021/06/15 11:01:28;;;;;;;5.40;4.80;;;;;;;34.92;24.66;99405.81;5017238;28;20513;-84
2021/06/15 11:03:59;;;;;;;6.80;4.85;;;;;;;35.11;25.15;99424.25;5000567;28;20038;-85
2021/06/15 11:06:28;;;;;;;5.40;4.75;;;;;;;35.21;24.85;99423.97;5016416;28;20086;-84
2021/06/15 11:09:03;;;;;;;8.38;4.90;;;;;;;35.08;25.16;99424.59;5020737;28;20064;-83
2021/06/15 11:11:30;;;;;;;9.07;4.90;;;;;;;34.81;25.28;99405.19;5005571;28;20106;-87
2021/06/15 11:14:08;;;;;;;6.22;4.97;;;;;;;34.52;26.03;99393.28;5032450;28;20041;-86
2021/06/15 11:16:42;;;;;;;7.03;5.20;;;;;;;34.44;26.16;99419.47;5034810;28;20094;-84
2021/06/15 11:19:11;;;;;;;7.78;4.72;;;;;;;34.29;26.53;99414.81;5019597;28;20037;-86
2021/06/15 11:21:48;;;;;;;6.68;4.88;;;;;;;33.97;26.18;99381.59;5035899;28;20113;-84
2021/06/15 11:24:18;;;;;;;6.63;5.22;;;;;;;33.67;26.58;99377.81;5041279;28;20033;-85
2021/06/15 11:26:47;;;;;;;6.97;4.93;;;;;;;33.59;27.10;99373.28;5016059;28;20042;-84
2021/06/15 11:29:41;;;;;;;5.20;4.35;;;;;;;33.61;26.88;99404.47;5032634;28;20050;-82
2021/06/15 11:32:29;;;;;;;5.45;4.88;;;;;;;33.54;26.74;99400.78;5026070;28;20045;-84
2021/06/15 11:34:55;;;;;;;7.22;4.55;;;;;;;33.42;26.99;99405.69;5017106;28;20046;-83
2021/06/15 11:37:36;;;;;;;6.20;5.05;;;;;;;33.18;27.18;99406.56;4998105;28;20145;-83
2021/06/15 11:40:16;;;;;;;7.70;4.72;;;;;;;32.94;27.30;99397.47;5013297;28;20543;-83
2021/06/15 11:42:50;;;;;;;5.70;5.13;;;;;;;32.70;27.29;99366.81;5015557;28;20053;-86
2021/06/15 11:45:21;;;;;;;9.48;5.88;;;;;;;32.82;28.13;99388.00;5033750;28;20088;-85
2021/06/15 11:47:55;;;;;;;5.95;5.45;;;;;;;32.50;28.46;99363.59;5018535;28;20045;-87
2021/06/15 11:50:34;;;;;;;6.00;4.90;;;;;;;32.44;28.28;99389.31;5018924;28;20571;-84